createdAt,value
2022-11-13T00:01:28.837Z,25.75
2022-11-13T00:04:16.711Z,24.00
2022-11-13T00:07:04.496Z,22.75
2022-11-13T00:09:52.166Z,21.75
2022-11-13T00:12:40.030Z,20.25
2022-11-13T00:15:28.083Z,18.75
2022-11-13T00:18:15.458Z,19.25
2022-11-13T00:21:10.749Z,18.50
2022-11-13T00:23:58.745Z,20.25
2022-11-13T00:26:46.569Z,19.00
2022-11-13T00:29:34.310Z,23.25
2022-11-13T00:32:22.668Z,25.00
2022-11-13T00:35:10.660Z,23.00
2022-11-13T00:37:59.530Z,20.00
2022-11-13T00:40:47.114Z,23.25
2022-11-13T00:43:35.387Z,22.25
2022-11-13T00:46:23.247Z,23.25
2022-11-13T00:49:11.273Z,24.75
2022-11-13T00:51:58.860Z,19.25
2022-11-13T00:54:47.102Z,26.50
2022-11-13T00:57:34.597Z,24.50
2022-11-13T01:00:22.521Z,28.75
2022-11-13T01:03:10.498Z,25.00
2022-11-13T01:05:58.537Z,22.25
2022-11-13T01:08:46.344Z,21.75
2022-11-13T01:11:34.642Z,24.75
2022-11-13T01:14:22.310Z,19.25
2022-11-13T01:17:09.800Z,27.50
2022-11-13T01:19:57.400Z,25.00
2022-11-13T01:22:45.204Z,29.00
2022-11-13T01:25:32.595Z,24.50
2022-11-13T01:28:20.184Z,24.25
2022-11-13T01:31:11.183Z,25.00
2022-11-13T01:33:59.142Z,24.00
2022-11-13T01:36:47.207Z,22.00
2022-11-13T01:39:35.001Z,22.25
2022-11-13T01:42:23.628Z,26.75
2022-11-13T01:45:29.532Z,22.75
2022-11-13T01:48:17.402Z,19.50
2022-11-13T01:51:10.686Z,21.50
2022-11-13T01:53:59.614Z,20.00
2022-11-13T01:56:47.307Z,26.50
2022-11-13T01:59:42.147Z,21.00
2022-11-13T02:02:30.551Z,19.25
2022-11-13T02:05:19.013Z,22.50
2022-11-13T02:08:06.703Z,20.75
2022-11-13T02:10:55.007Z,23.75
2022-11-13T02:13:43.035Z,25.25
2022-11-13T02:16:32.721Z,21.75
2022-11-13T02:19:40.420Z,21.75
2022-11-13T02:22:53.605Z,19.25
2022-11-13T02:25:42.694Z,21.50
2022-11-13T02:28:31.005Z,18.75
2022-11-13T02:31:19.332Z,22.75
2022-11-13T02:34:07.476Z,20.25
2022-11-13T02:36:55.871Z,24.75
2022-11-13T02:39:43.645Z,21.75
2022-11-13T02:42:31.884Z,23.50
2022-11-13T02:45:19.390Z,22.50
2022-11-13T02:48:08.473Z,19.50
2022-11-13T02:50:56.308Z,19.00
2022-11-13T02:53:43.749Z,19.00
2022-11-13T02:56:31.876Z,20.50
2022-11-13T02:59:19.899Z,21.00
2022-11-13T03:02:07.909Z,23.00
2022-11-13T03:05:13.086Z,19.00
2022-11-13T03:08:01.226Z,17.00
2022-11-13T03:10:49.123Z,24.75
2022-11-13T03:13:36.891Z,21.50
2022-11-13T03:16:24.731Z,22.00
2022-11-13T03:19:12.168Z,20.00
2022-11-13T03:22:00.787Z,21.00
2022-11-13T03:24:48.226Z,21.75
2022-11-13T03:27:36.530Z,18.75
2022-11-13T03:30:24.339Z,19.25
2022-11-13T03:33:12.418Z,17.00
2022-11-13T03:36:00.501Z,17.25
2022-11-13T03:38:48.936Z,20.00
2022-11-13T03:41:36.165Z,18.50
2022-11-13T03:44:24.450Z,16.75
2022-11-13T03:47:12.151Z,22.75
2022-11-13T03:50:00.006Z,21.00
2022-11-13T03:52:47.294Z,17.75
2022-11-13T03:55:35.377Z,21.00
2022-11-13T03:58:23.653Z,27.75
2022-11-13T04:01:11.813Z,20.75
2022-11-13T04:03:59.887Z,22.50
2022-11-13T04:06:47.881Z,20.00
2022-11-13T04:09:35.785Z,21.25
2022-11-13T04:12:23.243Z,21.25
2022-11-13T04:15:11.686Z,19.00
2022-11-13T04:17:59.258Z,19.50
2022-11-13T04:20:47.234Z,20.75
2022-11-13T04:23:35.241Z,21.50
2022-11-13T04:26:23.151Z,18.50
2022-11-13T04:29:10.725Z,17.25
2022-11-13T04:31:58.912Z,17.00
2022-11-13T04:34:46.530Z,26.75
2022-11-13T04:37:33.933Z,18.75
2022-11-13T04:40:21.891Z,20.00
2022-11-13T04:43:09.844Z,18.50
2022-11-13T04:45:58.048Z,20.75
2022-11-13T04:48:46.190Z,25.25
2022-11-13T04:51:34.067Z,23.00
2022-11-13T04:54:25.774Z,19.25
2022-11-13T04:57:15.890Z,21.25
2022-11-13T05:00:03.519Z,18.00
2022-11-13T05:02:51.518Z,18.25
2022-11-13T05:05:38.964Z,17.25
2022-11-13T05:08:26.806Z,20.25
2022-11-13T05:11:15.070Z,17.50
2022-11-13T05:14:03.762Z,19.75
2022-11-13T05:16:54.013Z,19.75
2022-11-13T05:19:41.594Z,22.25
2022-11-13T05:22:29.502Z,19.25
2022-11-13T05:25:17.009Z,19.75
2022-11-13T05:28:04.286Z,23.50
2022-11-13T05:30:52.316Z,21.75
2022-11-13T05:33:40.798Z,25.75
2022-11-13T05:36:29.597Z,22.00
2022-11-13T05:39:17.417Z,18.50
2022-11-13T05:42:07.009Z,25.25
2022-11-13T05:44:55.148Z,21.75
2022-11-13T05:47:43.061Z,24.25
2022-11-13T05:50:31.101Z,19.75
2022-11-13T05:53:18.742Z,19.00
2022-11-13T05:56:08.129Z,19.25
2022-11-13T05:58:56.924Z,19.25
2022-11-13T06:01:45.123Z,20.75
2022-11-13T06:04:33.466Z,21.50
2022-11-13T06:07:21.330Z,19.00
2022-11-13T06:10:10.232Z,25.75
2022-11-13T06:12:58.291Z,21.50
2022-11-13T06:15:46.860Z,22.75
2022-11-13T06:18:34.948Z,22.50
2022-11-13T06:21:24.512Z,17.00
2022-11-13T06:24:14.186Z,19.25
2022-11-13T06:27:02.731Z,20.75
2022-11-13T06:29:50.564Z,19.50
2022-11-13T06:32:38.857Z,18.00
2022-11-13T06:35:27.029Z,18.50
2022-11-13T06:38:15.169Z,19.50
2022-11-13T06:41:03.813Z,20.50
2022-11-13T06:43:52.489Z,18.25
2022-11-13T06:46:41.744Z,22.50
2022-11-13T06:49:31.295Z,20.75
2022-11-13T06:52:19.698Z,20.75
2022-11-13T06:55:08.192Z,23.50
2022-11-13T06:57:56.521Z,19.75
2022-11-13T07:00:45.429Z,24.50
2022-11-13T07:03:33.614Z,22.50
2022-11-13T07:06:23.042Z,26.25
2022-11-13T07:09:10.897Z,22.50
2022-11-13T07:11:58.968Z,21.00
2022-11-13T07:14:47.518Z,27.50
2022-11-13T07:17:36.108Z,32.00
2022-11-13T07:20:24.416Z,24.00
2022-11-13T07:23:13.913Z,23.50
2022-11-13T07:26:02.217Z,23.00
2022-11-13T07:28:50.450Z,28.00
2022-11-13T07:31:38.189Z,27.00
2022-11-13T07:34:26.119Z,23.00
2022-11-13T07:37:13.851Z,26.25
2022-11-13T07:40:01.692Z,29.75
2022-11-13T07:42:50.711Z,24.50
2022-11-13T07:45:38.891Z,29.25
2022-11-13T07:48:27.350Z,27.00
2022-11-13T07:51:15.873Z,22.00
2022-11-13T07:54:03.792Z,23.50
2022-11-13T07:56:52.528Z,33.50
2022-11-13T07:59:40.744Z,22.75
2022-11-13T08:02:29.271Z,26.75
2022-11-13T08:05:17.529Z,22.50
2022-11-13T08:08:05.987Z,22.50
2022-11-13T08:10:55.475Z,24.50
2022-11-13T08:13:44.622Z,27.75
2022-11-13T08:16:32.593Z,36.50
2022-11-13T08:19:20.482Z,25.25
2022-11-13T08:22:08.781Z,24.00
2022-11-13T08:24:56.448Z,31.25
2022-11-13T08:27:44.730Z,28.00
2022-11-13T08:30:32.928Z,26.25
2022-11-13T08:33:21.182Z,35.25
2022-11-13T08:36:09.578Z,33.75
2022-11-13T08:38:58.859Z,24.00
2022-11-13T08:41:47.349Z,26.75
2022-11-13T08:44:35.969Z,25.00
2022-11-13T08:47:29.173Z,22.75
2022-11-13T08:50:17.343Z,27.25
2022-11-13T08:53:04.775Z,31.75
2022-11-13T08:55:52.389Z,35.50
2022-11-13T08:58:40.196Z,29.75
2022-11-13T09:01:28.577Z,24.00
2022-11-13T09:04:16.090Z,29.75
2022-11-13T09:07:04.079Z,29.25
2022-11-13T09:09:51.865Z,21.50
2022-11-13T09:12:39.977Z,26.00
2022-11-13T09:15:27.929Z,25.25
2022-11-13T09:18:16.172Z,30.25
2022-11-13T09:21:04.632Z,28.75
2022-11-13T09:23:52.276Z,26.75
2022-11-13T09:26:40.161Z,33.25
2022-11-13T09:29:29.787Z,25.25
2022-11-13T09:32:18.668Z,43.25
2022-11-13T09:35:06.419Z,32.25
2022-11-13T09:37:54.544Z,45.25
2022-11-13T09:40:42.342Z,34.25
2022-11-13T09:43:35.842Z,34.00
2022-11-13T09:46:35.553Z,54.25
2022-11-13T09:49:31.174Z,52.00
2022-11-13T09:52:23.068Z,68.25
2022-11-13T09:55:14.240Z,58.75
2022-11-13T09:58:20.174Z,59.75
2022-11-13T10:01:13.477Z,56.00
2022-11-13T10:04:08.106Z,58.00
2022-11-13T10:07:02.550Z,61.75
2022-11-13T10:09:50.763Z,55.25
2022-11-13T10:12:38.357Z,55.00
2022-11-13T10:15:28.338Z,59.00
2022-11-13T10:18:21.466Z,61.00
2022-11-13T10:21:20.028Z,56.50
2022-11-13T10:24:15.038Z,59.25
2022-11-13T10:27:03.092Z,57.00
2022-11-13T10:29:50.745Z,56.75
2022-11-13T10:32:39.041Z,57.50
2022-11-13T10:35:46.883Z,58.25
2022-11-13T10:38:34.453Z,55.75
2022-11-13T10:41:23.152Z,57.75
2022-11-13T10:44:21.561Z,59.50
2022-11-13T10:47:42.813Z,59.50
2022-11-13T10:50:30.981Z,65.50
2022-11-13T10:53:20.016Z,65.00
2022-11-13T10:56:16.169Z,63.00
2022-11-13T10:59:06.559Z,60.50
2022-11-13T11:01:55.016Z,62.25
2022-11-13T11:04:43.026Z,58.75
2022-11-13T11:07:30.694Z,59.25
2022-11-13T11:10:37.754Z,59.00
2022-11-13T11:13:26.295Z,65.50
2022-11-13T11:16:20.116Z,58.25
2022-11-13T11:19:10.617Z,59.00
2022-11-13T11:22:11.381Z,58.50
2022-11-13T11:25:12.415Z,56.50
2022-11-13T11:28:19.376Z,61.25
2022-11-13T11:31:23.247Z,57.75
2022-11-13T11:34:17.626Z,56.75
2022-11-13T11:37:17.185Z,64.75
2022-11-13T11:40:17.708Z,59.25
2022-11-13T11:43:08.818Z,63.50
2022-11-13T11:45:56.890Z,59.00
2022-11-13T11:48:44.225Z,56.00
2022-11-13T11:51:33.358Z,57.25
2022-11-13T11:54:26.815Z,57.25
2022-11-13T11:57:39.203Z,64.25
2022-11-13T12:00:30.035Z,61.25
2022-11-13T12:03:36.217Z,62.00
2022-11-13T12:06:37.032Z,66.00
2022-11-13T12:09:32.326Z,61.00
2022-11-13T12:12:34.802Z,59.00
2022-11-13T12:15:22.373Z,58.75
2022-11-13T12:18:30.552Z,57.50
2022-11-13T12:21:28.498Z,54.00
2022-11-13T12:24:39.713Z,59.00
2022-11-13T12:27:41.025Z,52.75
2022-11-13T12:30:36.320Z,53.75
2022-11-13T12:33:42.996Z,57.25
2022-11-13T12:36:30.949Z,52.50
2022-11-13T12:39:39.347Z,55.25
2022-11-13T12:42:33.392Z,56.50
2022-11-13T12:45:37.866Z,54.75
2022-11-13T12:48:34.449Z,53.75
2022-11-13T12:51:23.326Z,49.00
2022-11-13T12:54:11.761Z,51.75
2022-11-13T12:57:25.894Z,54.25
2022-11-13T13:00:28.667Z,54.25
2022-11-13T13:03:29.098Z,48.75
2022-11-13T13:06:23.102Z,50.50
2022-11-13T13:09:20.959Z,51.25
2022-11-13T13:12:14.938Z,49.00
2022-11-13T13:15:11.375Z,47.50
2022-11-13T13:18:08.351Z,51.00
2022-11-13T13:20:59.834Z,48.00
2022-11-13T13:23:52.808Z,52.50
2022-11-13T13:26:49.713Z,49.50
2022-11-13T13:29:37.607Z,48.50
2022-11-13T13:32:28.638Z,45.75
2022-11-13T13:35:27.213Z,44.75
2022-11-13T13:38:36.911Z,48.00
2022-11-13T13:41:37.978Z,47.00
2022-11-13T13:44:29.005Z,43.75
2022-11-13T13:47:25.528Z,42.75
2022-11-13T13:50:17.454Z,52.25
2022-11-13T13:53:06.201Z,45.75
2022-11-13T13:55:55.333Z,49.00
2022-11-13T13:58:43.731Z,45.00
2022-11-13T14:01:36.459Z,43.50
2022-11-13T14:04:25.974Z,42.00
2022-11-13T14:07:26.183Z,44.25
2022-11-13T14:10:14.594Z,43.25
2022-11-13T14:13:02.329Z,45.25
2022-11-13T14:15:50.442Z,41.75
2022-11-13T14:18:38.985Z,43.25
2022-11-13T14:21:27.082Z,42.00
2022-11-13T14:24:50.665Z,37.50
2022-11-13T14:27:39.628Z,38.25
2022-11-13T14:30:29.187Z,42.00
2022-11-13T14:33:25.148Z,37.75
2022-11-13T14:36:14.551Z,34.75
2022-11-13T14:39:03.364Z,41.75
2022-11-13T14:42:02.066Z,39.00
2022-11-13T14:44:50.455Z,42.50
2022-11-13T14:47:39.037Z,38.50
2022-11-13T14:50:29.775Z,35.75
2022-11-13T14:53:27.847Z,40.00
2022-11-13T14:56:16.933Z,43.25
2022-11-13T14:59:15.557Z,45.75
2022-11-13T15:02:06.381Z,40.50
2022-11-13T15:04:54.539Z,34.50
2022-11-13T15:07:44.171Z,37.50
2022-11-13T15:10:33.621Z,42.25
2022-11-13T15:13:22.301Z,34.25
2022-11-13T15:16:15.795Z,37.75
2022-11-13T15:19:06.784Z,42.50
2022-11-13T15:22:25.300Z,38.50
2022-11-13T15:25:05.140Z,36.00
2022-11-13T15:27:53.761Z,36.25
2022-11-13T15:30:42.087Z,33.75
2022-11-13T15:33:31.043Z,39.00
2022-11-13T15:36:20.478Z,32.50
2022-11-13T15:39:13.162Z,36.00
2022-11-13T15:42:09.099Z,34.00
2022-11-13T15:44:57.729Z,34.00
2022-11-13T15:47:45.759Z,39.25
2022-11-13T15:50:34.452Z,33.25
2022-11-13T15:53:22.722Z,31.50
2022-11-13T15:56:11.294Z,34.00
2022-11-13T15:58:59.365Z,32.00
2022-11-13T16:01:51.767Z,33.75
2022-11-13T16:04:55.559Z,32.25
2022-11-13T16:07:44.858Z,35.00
2022-11-13T16:10:33.253Z,38.75
2022-11-13T16:13:22.636Z,40.50
2022-11-13T16:16:23.585Z,36.50
2022-11-13T16:19:14.982Z,30.00
2022-11-13T16:22:04.538Z,30.75
2022-11-13T16:24:53.263Z,34.00
2022-11-13T16:27:41.799Z,34.25
2022-11-13T16:30:33.189Z,35.75
2022-11-13T16:33:21.576Z,31.50
2022-11-13T16:36:35.481Z,40.50
2022-11-13T16:39:23.353Z,31.00
2022-11-13T16:42:11.706Z,33.00
2022-11-13T16:44:59.552Z,42.75
2022-11-13T16:47:48.926Z,31.75
2022-11-13T16:50:38.460Z,32.75
2022-11-13T16:53:26.815Z,34.75
2022-11-13T16:56:19.290Z,40.50
2022-11-13T16:59:07.502Z,36.00
2022-11-13T17:01:58.441Z,32.75
2022-11-13T17:04:46.877Z,35.75
2022-11-13T17:07:34.982Z,31.50
2022-11-13T17:10:32.287Z,31.50
2022-11-13T17:13:21.191Z,32.75
2022-11-13T17:16:09.837Z,33.00
2022-11-13T17:18:57.646Z,39.50
2022-11-13T17:21:45.599Z,35.75
2022-11-13T17:24:33.597Z,34.00
2022-11-13T17:27:22.043Z,35.50
2022-11-13T17:30:10.325Z,25.75
2022-11-13T17:32:58.321Z,28.75
2022-11-13T17:35:47.977Z,29.75
2022-11-13T17:38:36.326Z,32.25
2022-11-13T17:41:24.205Z,30.50
2022-11-13T17:44:12.167Z,33.50
2022-11-13T17:47:01.027Z,37.25
2022-11-13T17:49:49.383Z,35.25
2022-11-13T17:52:37.727Z,29.75
2022-11-13T17:55:28.534Z,29.25
2022-11-13T17:58:16.637Z,36.75
2022-11-13T18:01:06.674Z,29.00
2022-11-13T18:03:58.176Z,31.50
2022-11-13T18:06:46.172Z,32.25
2022-11-13T18:09:36.721Z,31.00
2022-11-13T18:12:25.008Z,31.50
2022-11-13T18:15:13.605Z,28.50
2022-11-13T18:18:01.468Z,31.75
2022-11-13T18:20:50.023Z,34.75
2022-11-13T18:23:38.759Z,32.25
2022-11-13T18:26:27.578Z,29.25
2022-11-13T18:29:15.051Z,28.00
2022-11-13T18:32:02.792Z,29.75
2022-11-13T18:34:50.373Z,29.75
2022-11-13T18:37:37.972Z,30.75
2022-11-13T18:40:25.694Z,25.50
2022-11-13T18:43:13.352Z,29.25
2022-11-13T18:46:03.137Z,27.50
2022-11-13T18:48:51.251Z,30.25
2022-11-13T18:51:39.791Z,30.25
2022-11-13T18:54:29.347Z,31.00
2022-11-13T18:57:17.780Z,28.50
2022-11-13T19:00:06.825Z,32.50
2022-11-13T19:02:54.481Z,30.00
2022-11-13T19:05:46.524Z,27.25
2022-11-13T19:08:39.510Z,27.75
2022-11-13T19:11:29.268Z,30.25
2022-11-13T19:14:18.303Z,35.25
2022-11-13T19:17:06.191Z,28.00
2022-11-13T19:19:54.060Z,26.25
2022-11-13T19:22:42.039Z,23.00
2022-11-13T19:25:29.722Z,28.75
2022-11-13T19:28:18.750Z,27.75
2022-11-13T19:31:09.927Z,29.00
2022-11-13T19:33:59.166Z,27.50
2022-11-13T19:36:47.745Z,26.50
2022-11-13T19:39:36.760Z,26.50
2022-11-13T19:42:24.234Z,28.00
2022-11-13T19:45:12.264Z,27.75
2022-11-13T19:47:59.847Z,25.75
2022-11-13T19:50:48.769Z,29.50
2022-11-13T19:53:37.134Z,28.75
2022-11-13T19:56:25.552Z,22.75
2022-11-13T19:59:13.299Z,26.00
2022-11-13T20:02:00.865Z,27.25
2022-11-13T20:04:48.402Z,29.50
2022-11-13T20:07:35.752Z,25.75
2022-11-13T20:10:22.811Z,28.75
2022-11-13T20:13:10.905Z,22.75
2022-11-13T20:15:58.067Z,28.00
2022-11-13T20:18:46.094Z,32.75
2022-11-13T20:21:34.112Z,28.75
2022-11-13T20:24:21.894Z,28.00
2022-11-13T20:27:11.269Z,25.50
2022-11-13T20:29:59.193Z,26.50
2022-11-13T20:32:47.441Z,28.50
2022-11-13T20:35:35.320Z,34.50
2022-11-13T20:38:22.941Z,37.00
2022-11-13T20:41:12.392Z,24.75
2022-11-13T20:44:03.117Z,24.75
2022-11-13T20:46:50.609Z,21.75
2022-11-13T20:49:38.348Z,24.50
2022-11-13T20:52:25.748Z,26.25
2022-11-13T20:55:14.010Z,25.25
2022-11-13T20:58:02.992Z,28.00
2022-11-13T21:00:50.691Z,28.75
2022-11-13T21:03:41.845Z,26.50
2022-11-13T21:06:30.058Z,22.75
2022-11-13T21:09:17.454Z,29.75
2022-11-13T21:12:04.761Z,24.50
2022-11-13T21:14:53.272Z,23.75
2022-11-13T21:17:41.267Z,21.00
2022-11-13T21:20:29.023Z,22.00
2022-11-13T21:23:16.838Z,26.25
2022-11-13T21:26:06.798Z,28.25
2022-11-13T21:28:58.028Z,28.00
2022-11-13T21:31:45.968Z,23.25
2022-11-13T21:34:33.419Z,26.50
2022-11-13T21:37:21.313Z,22.25
2022-11-13T21:40:09.286Z,26.50
2022-11-13T21:42:57.972Z,21.75
2022-11-13T21:45:45.458Z,25.00
2022-11-13T21:48:33.526Z,22.50
2022-11-13T21:51:21.538Z,23.75
2022-11-13T21:54:10.755Z,27.50
2022-11-13T21:56:58.251Z,21.50
2022-11-13T21:59:45.603Z,25.00
2022-11-13T22:02:33.755Z,26.25
2022-11-13T22:05:21.287Z,24.50
2022-11-13T22:08:09.025Z,25.25
2022-11-13T22:10:56.399Z,25.75
2022-11-13T22:13:45.216Z,27.25
2022-11-13T22:16:33.558Z,24.75
2022-11-13T22:19:27.020Z,22.50
2022-11-13T22:22:16.217Z,27.75
2022-11-13T22:25:04.217Z,27.50
2022-11-13T22:27:51.725Z,22.50
2022-11-13T22:30:39.397Z,26.50
2022-11-13T22:33:31.439Z,27.00
2022-11-13T22:36:21.534Z,23.00
2022-11-13T22:39:09.625Z,22.25
2022-11-13T22:41:57.009Z,20.00
2022-11-13T22:44:55.442Z,22.75
2022-11-13T22:47:43.809Z,19.00
2022-11-13T22:50:31.688Z,22.00
2022-11-13T22:53:19.113Z,25.75
2022-11-13T22:56:08.359Z,21.75
2022-11-13T22:58:56.831Z,21.00
2022-11-13T23:01:44.543Z,20.50
2022-11-13T23:04:32.098Z,21.00
2022-11-13T23:07:20.419Z,18.75
2022-11-13T23:10:08.538Z,30.25
2022-11-13T23:12:56.412Z,27.25
2022-11-13T23:15:43.968Z,24.25
2022-11-13T23:18:32.676Z,25.75
2022-11-13T23:21:21.141Z,21.25
2022-11-13T23:24:10.606Z,34.75
2022-11-13T23:26:58.619Z,31.75
2022-11-13T23:29:50.100Z,28.25
2022-11-13T23:32:37.925Z,30.75
2022-11-13T23:35:25.839Z,34.50
2022-11-13T23:38:12.996Z,32.75
2022-11-13T23:41:01.303Z,35.25
2022-11-13T23:46:57.189Z,36.75
2022-11-13T23:49:44.960Z,36.00
2022-11-13T23:52:32.334Z,41.75
2022-11-13T23:55:20.581Z,39.75
2022-11-13T23:58:08.907Z,38.25
